sensor_id;sensor_type;location;lat;lon;timestamp;pressure;altitude;pressure_sealevel;temperature;humidity
56668;BME280;42542;48.360;10.958;2024-03-02T00:01:29;95047.50;;;6.16;100.00
56668;BME280;42542;48.360;10.958;2024-03-02T00:04:31;95036.22;;;6.14;100.00
56668;BME280;42542;48.360;10.958;2024-03-02T00:07:33;95034.53;;;6.13;100.00
56668;BME280;42542;48.360;10.958;2024-03-02T00:10:37;95042.69;;;6.12;100.00
56668;BME280;42542;48.360;10.958;2024-03-02T00:13:41;95041.19;;;6.09;100.00
56668;BME280;42542;48.360;10.958;2024-03-02T00:16:43;95038.38;;;6.11;100.00
56668;BME280;42542;48.360;10.958;2024-03-02T00:19:45;95041.19;;;6.09;100.00
56668;BME280;42542;48.360;10.958;2024-03-02T00:22:46;95044.81;;;6.08;100.00
56668;BME280;42542;48.360;10.958;2024-03-02T00:25:56;95045.81;;;6.07;100.00
56668;BME280;42542;48.360;10.958;2024-03-02T00:28:59;95041.69;;;6.05;100.00
56668;BME280;42542;48.360;10.958;2024-03-02T00:32:02;95037.53;;;6.02;100.00
56668;BME280;42542;48.360;10.958;2024-03-02T00:35:05;95046.63;;;6.00;100.00
56668;BME280;42542;48.360;10.958;2024-03-02T00:38:07;95046.78;;;5.98;100.00
56668;BME280;42542;48.360;10.958;2024-03-02T00:41:24;95047.94;;;5.96;100.00
56668;BME280;42542;48.360;10.958;2024-03-02T00:44:26;95046.44;;;5.93;100.00
56668;BME280;42542;48.360;10.958;2024-03-02T00:47:29;95042.13;;;5.92;100.00
56668;BME280;42542;48.360;10.958;2024-03-02T00:50:31;95051.25;;;5.90;100.00
56668;BME280;42542;48.360;10.958;2024-03-02T00:53:34;95043.59;;;5.86;100.00
56668;BME280;42542;48.360;10.958;2024-03-02T00:56:35;95046.72;;;5.82;100.00
56668;BME280;42542;48.360;10.958;2024-03-02T00:59:37;95053.50;;;5.84;100.00
56668;BME280;42542;48.360;10.958;2024-03-02T01:02:39;95054.84;;;5.80;100.00
56668;BME280;42542;48.360;10.958;2024-03-02T01:05:43;95049.00;;;5.77;100.00
56668;BME280;42542;48.360;10.958;2024-03-02T01:08:45;95057.16;;;5.75;100.00
56668;BME280;42542;48.360;10.958;2024-03-02T01:11:47;95044.34;;;5.71;100.00
56668;BME280;42542;48.360;10.958;2024-03-02T01:14:49;95055.63;;;5.73;100.00
56668;BME280;42542;48.360;10.958;2024-03-02T01:17:52;95052.16;;;5.72;100.00
56668;BME280;42542;48.360;10.958;2024-03-02T01:20:56;95055.78;;;5.71;100.00
56668;BME280;42542;48.360;10.958;2024-03-02T01:23:58;95049.00;;;5.69;100.00
56668;BME280;42542;48.360;10.958;2024-03-02T01:27:00;95051.66;;;5.69;100.00
56668;BME280;42542;48.360;10.958;2024-03-02T01:30:01;95038.88;;;5.64;100.00
56668;BME280;42542;48.360;10.958;2024-03-02T01:33:03;95046.00;;;5.64;100.00
56668;BME280;42542;48.360;10.958;2024-03-02T01:36:06;95039.03;;;5.63;100.00
56668;BME280;42542;48.360;10.958;2024-03-02T01:39:10;95043.50;;;5.62;100.00
56668;BME280;42542;48.360;10.958;2024-03-02T01:42:12;95036.56;;;5.61;100.00
56668;BME280;42542;48.360;10.958;2024-03-02T01:45:14;95047.81;;;5.63;100.00
56668;BME280;42542;48.360;10.958;2024-03-02T01:48:17;95040.03;;;5.62;100.00
56668;BME280;42542;48.360;10.958;2024-03-02T01:51:18;95038.19;;;5.62;100.00
56668;BME280;42542;48.360;10.958;2024-03-02T01:54:21;95031.25;;;5.61;100.00
56668;BME280;42542;48.360;10.958;2024-03-02T01:57:25;95036.38;;;5.63;100.00
56668;BME280;42542;48.360;10.958;2024-03-02T02:00:27;95033.06;;;5.61;100.00
56668;BME280;42542;48.360;10.958;2024-03-02T02:03:29;95026.41;;;5.57;100.00
56668;BME280;42542;48.360;10.958;2024-03-02T02:06:32;95028.75;;;5.60;100.00
56668;BME280;42542;48.360;10.958;2024-03-02T02:09:34;95027.09;;;5.59;100.00
56668;BME280;42542;48.360;10.958;2024-03-02T02:12:37;95028.91;;;5.58;100.00
56668;BME280;42542;48.360;10.958;2024-03-02T02:15:39;95015.16;;;5.55;100.00
56668;BME280;42542;48.360;10.958;2024-03-02T02:18:41;95021.94;;;5.57;100.00
56668;BME280;42542;48.360;10.958;2024-03-02T02:21:43;95015.97;;;5.55;100.00
56668;BME280;42542;48.360;10.958;2024-03-02T02:24:45;95021.28;;;5.55;100.00
56668;BME280;42542;48.360;10.958;2024-03-02T02:27:47;95017.16;;;5.53;100.00
56668;BME280;42542;48.360;10.958;2024-03-02T02:30:49;95013.66;;;5.52;100.00
56668;BME280;42542;48.360;10.958;2024-03-02T02:33:51;95013.81;;;5.50;100.00
56668;BME280;42542;48.360;10.958;2024-03-02T02:36:53;95015.63;;;5.50;100.00
56668;BME280;42542;48.360;10.958;2024-03-02T02:39:56;95023.44;;;5.52;100.00
56668;BME280;42542;48.360;10.958;2024-03-02T02:42:58;95026.91;;;5.52;100.00
56668;BME280;42542;48.360;10.958;2024-03-02T02:46:03;95014.81;;;5.49;100.00
56668;BME280;42542;48.360;10.958;2024-03-02T02:49:05;95012.97;;;5.50;100.00
56668;BME280;42542;48.360;10.958;2024-03-02T02:52:06;95005.19;;;5.48;100.00
56668;BME280;42542;48.360;10.958;2024-03-02T02:55:12;94996.75;;;5.45;100.00
56668;BME280;42542;48.360;10.958;2024-03-02T02:58:15;95002.34;;;5.42;100.00
56668;BME280;42542;48.360;10.958;2024-03-02T03:01:17;94998.03;;;5.41;100.00
56668;BME280;42542;48.360;10.958;2024-03-02T03:04:22;95004.34;;;5.40;100.00
56668;BME280;42542;48.360;10.958;2024-03-02T03:07:24;95004.00;;;5.43;100.00
56668;BME280;42542;48.360;10.958;2024-03-02T03:10:25;95009.16;;;5.44;100.00
56668;BME280;42542;48.360;10.958;2024-03-02T03:13:29;95020.59;;;5.45;100.00
56668;BME280;42542;48.360;10.958;2024-03-02T03:16:31;95026.03;;;5.43;100.00
56668;BME280;42542;48.360;10.958;2024-03-02T03:19:33;95017.94;;;5.45;100.00
56668;BME280;42542;48.360;10.958;2024-03-02T03:22:36;95024.22;;;5.44;100.00
56668;BME280;42542;48.360;10.958;2024-03-02T03:25:37;95024.06;;;5.45;100.00
56668;BME280;42542;48.360;10.958;2024-03-02T03:28:39;95035.50;;;5.46;100.00
56668;BME280;42542;48.360;10.958;2024-03-02T03:31:41;95038.16;;;5.46;100.00
56668;BME280;42542;48.360;10.958;2024-03-02T03:34:43;95033.00;;;5.44;100.00
56668;BME280;42542;48.360;10.958;2024-03-02T03:37:45;95028.34;;;5.38;100.00
56668;BME280;42542;48.360;10.958;2024-03-02T03:40:47;95043.59;;;5.44;100.00
56668;BME280;42542;48.360;10.958;2024-03-02T03:43:49;95049.75;;;5.45;100.00
56668;BME280;42542;48.360;10.958;2024-03-02T03:46:51;95052.41;;;5.45;100.00
56668;BME280;42542;48.360;10.958;2024-03-02T03:49:53;95055.19;;;5.43;100.00
56668;BME280;42542;48.360;10.958;2024-03-02T03:52:55;95053.38;;;5.44;100.00
56668;BME280;42542;48.360;10.958;2024-03-02T03:55:57;95045.56;;;5.42;100.00
56668;BME280;42542;48.360;10.958;2024-03-02T03:59:00;95057.84;;;5.43;100.00
56668;BME280;42542;48.360;10.958;2024-03-02T04:02:01;95056.19;;;5.42;100.00
56668;BME280;42542;48.360;10.958;2024-03-02T04:05:04;95055.50;;;5.40;100.00
56668;BME280;42542;48.360;10.958;2024-03-02T04:08:10;95053.69;;;5.41;100.00
56668;BME280;42542;48.360;10.958;2024-03-02T04:11:12;95048.03;;;5.36;100.00
56668;BME280;42542;48.360;10.958;2024-03-02T04:14:14;95064.28;;;5.41;100.00
56668;BME280;42542;48.360;10.958;2024-03-02T04:17:16;95062.78;;;5.38;100.00
56668;BME280;42542;48.360;10.958;2024-03-02T04:20:18;95064.47;;;5.39;100.00
56668;BME280;42542;48.360;10.958;2024-03-02T04:23:20;95069.75;;;5.39;100.00
56668;BME280;42542;48.360;10.958;2024-03-02T04:26:22;95075.91;;;5.40;100.00
56668;BME280;42542;48.360;10.958;2024-03-02T04:29:23;95069.75;;;5.39;100.00
56668;BME280;42542;48.360;10.958;2024-03-02T04:32:26;95074.72;;;5.42;100.00
56668;BME280;42542;48.360;10.958;2024-03-02T04:35:29;95068.59;;;5.42;100.00
56668;BME280;42542;48.360;10.958;2024-03-02T04:38:31;95078.38;;;5.41;100.00
56668;BME280;42542;48.360;10.958;2024-03-02T04:41:33;95070.41;;;5.41;100.00
56668;BME280;42542;48.360;10.958;2024-03-02T04:44:35;95068.94;;;5.39;100.00
56668;BME280;42542;48.360;10.958;2024-03-02T04:47:37;95074.22;;;5.39;100.00
56668;BME280;42542;48.360;10.958;2024-03-02T04:50:39;95078.38;;;5.41;100.00
56668;BME280;42542;48.360;10.958;2024-03-02T04:53:41;95082.00;;;5.40;100.00
56668;BME280;42542;48.360;10.958;2024-03-02T04:56:43;95085.66;;;5.39;100.00
56668;BME280;42542;48.360;10.958;2024-03-02T04:59:52;95078.50;;;5.32;100.00
56668;BME280;42542;48.360;10.958;2024-03-02T05:02:54;95086.66;;;5.38;100.00
56668;BME280;42542;48.360;10.958;2024-03-02T05:05:56;95087.47;;;5.39;100.00
56668;BME280;42542;48.360;10.958;2024-03-02T05:08:57;95082.19;;;5.39;100.00
56668;BME280;42542;48.360;10.958;2024-03-02T05:11:59;95086.81;;;5.37;100.00
56668;BME280;42542;48.360;10.958;2024-03-02T05:15:13;95081.66;;;5.35;100.00
56668;BME280;42542;48.360;10.958;2024-03-02T05:18:16;95082.13;;;5.31;100.00
56668;BME280;42542;48.360;10.958;2024-03-02T05:21:18;95093.03;;;5.28;100.00
56668;BME280;42542;48.360;10.958;2024-03-02T05:24:20;95087.88;;;5.26;100.00
56668;BME280;42542;48.360;10.958;2024-03-02T05:27:22;95089.06;;;5.24;100.00
56668;BME280;42542;48.360;10.958;2024-03-02T05:30:24;95086.56;;;5.22;100.00
56668;BME280;42542;48.360;10.958;2024-03-02T05:33:28;95091.16;;;5.20;100.00
56668;BME280;42542;48.360;10.958;2024-03-02T05:36:32;95099.59;;;5.16;100.00
56668;BME280;42542;48.360;10.958;2024-03-02T05:39:34;95094.59;;;5.13;100.00
56668;BME280;42542;48.360;10.958;2024-03-02T05:42:36;95093.94;;;5.10;100.00
56668;BME280;42542;48.360;10.958;2024-03-02T05:45:38;95104.00;;;5.07;100.00
56668;BME280;42542;48.360;10.958;2024-03-02T05:48:41;95093.56;;;5.05;100.00
56668;BME280;42542;48.360;10.958;2024-03-02T05:51:43;95084.28;;;5.01;100.00
56668;BME280;42542;48.360;10.958;2024-03-02T05:54:45;95085.19;;;4.92;100.00
56668;BME280;42542;48.360;10.958;2024-03-02T05:57:46;95090.50;;;4.92;100.00
56668;BME280;42542;48.360;10.958;2024-03-02T06:01:04;95089.16;;;4.88;100.00
56668;BME280;42542;48.360;10.958;2024-03-02T06:04:07;95081.66;;;4.84;100.00
56668;BME280;42542;48.360;10.958;2024-03-02T06:07:09;95081.84;;;4.82;100.00
56668;BME280;42542;48.360;10.958;2024-03-02T06:10:11;95085.75;;;4.78;100.00
56668;BME280;42542;48.360;10.958;2024-03-02T06:13:15;95087.06;;;4.74;100.00
56668;BME280;42542;48.360;10.958;2024-03-02T06:16:17;95087.69;;;4.68;100.00
56668;BME280;42542;48.360;10.958;2024-03-02T06:19:19;95086.31;;;4.64;100.00
56668;BME280;42542;48.360;10.958;2024-03-02T06:22:21;95084.00;;;4.61;100.00
56668;BME280;42542;48.360;10.958;2024-03-02T06:25:26;95087.75;;;4.58;100.00
56668;BME280;42542;48.360;10.958;2024-03-02T06:28:28;95082.63;;;4.57;100.00
56668;BME280;42542;48.360;10.958;2024-03-02T06:31:30;95086.25;;;4.56;100.00
56668;BME280;42542;48.360;10.958;2024-03-02T06:34:32;95087.91;;;4.57;100.00
56668;BME280;42542;48.360;10.958;2024-03-02T06:37:34;95089.03;;;4.54;100.00
56668;BME280;42542;48.360;10.958;2024-03-02T06:40:36;95087.22;;;4.55;100.00
56668;BME280;42542;48.360;10.958;2024-03-02T06:43:39;95085.41;;;4.55;100.00
56668;BME280;42542;48.360;10.958;2024-03-02T06:46:41;95081.94;;;4.55;100.00
56668;BME280;42542;48.360;10.958;2024-03-02T06:49:43;95083.59;;;4.56;100.00
56668;BME280;42542;48.360;10.958;2024-03-02T06:52:44;95078.16;;;4.57;100.00
56668;BME280;42542;48.360;10.958;2024-03-02T06:55:47;95078.00;;;4.59;100.00
56668;BME280;42542;48.360;10.958;2024-03-02T06:58:48;95087.97;;;4.65;100.00
56668;BME280;42542;48.360;10.958;2024-03-02T07:01:50;95083.06;;;4.70;100.00
56668;BME280;42542;48.360;10.958;2024-03-02T07:04:55;95084.44;;;4.74;100.00
56668;BME280;42542;48.360;10.958;2024-03-02T07:08:01;95080.31;;;4.80;100.00
56668;BME280;42542;48.360;10.958;2024-03-02T07:11:07;95081.66;;;4.84;100.00
56668;BME280;42542;48.360;10.958;2024-03-02T07:14:09;95082.19;;;4.87;100.00
56668;BME280;42542;48.360;10.958;2024-03-02T07:17:12;95083.53;;;4.91;100.00
56668;BME280;42542;48.360;10.958;2024-03-02T07:20:14;95082.25;;;4.95;100.00
56668;BME280;42542;48.360;10.958;2024-03-02T07:23:16;95089.03;;;4.98;100.00
56668;BME280;42542;48.360;10.958;2024-03-02T07:26:18;95084.97;;;5.03;100.00
56668;BME280;42542;48.360;10.958;2024-03-02T07:29:23;95086.28;;;5.07;100.00
56668;BME280;42542;48.360;10.958;2024-03-02T07:32:25;95083.84;;;5.14;100.00
56668;BME280;42542;48.360;10.958;2024-03-02T07:35:27;95086.19;;;5.17;100.00
56668;BME280;42542;48.360;10.958;2024-03-02T07:38:29;95084.88;;;5.21;100.00
56668;BME280;42542;48.360;10.958;2024-03-02T07:41:31;95084.44;;;5.26;100.00
56668;BME280;42542;48.360;10.958;2024-03-02T07:44:34;95091.75;;;5.32;100.00
56668;BME280;42542;48.360;10.958;2024-03-02T07:47:36;95095.72;;;5.36;100.00
56668;BME280;42542;48.360;10.958;2024-03-02T07:50:38;95092.59;;;5.40;100.00
56668;BME280;42542;48.360;10.958;2024-03-02T07:53:41;95092.97;;;5.45;100.00
56668;BME280;42542;48.360;10.958;2024-03-02T07:56:42;95096.81;;;5.51;100.00
56668;BME280;42542;48.360;10.958;2024-03-02T07:59:45;95096.16;;;5.57;100.00
56668;BME280;42542;48.360;10.958;2024-03-02T08:02:47;95096.34;;;5.64;100.00
56668;BME280;42542;48.360;10.958;2024-03-02T08:05:49;95098.06;;;5.73;100.00
56668;BME280;42542;48.360;10.958;2024-03-02T08:08:51;95101.88;;;5.78;100.00
56668;BME280;42542;48.360;10.958;2024-03-02T08:11:53;95110.72;;;5.87;100.00
56668;BME280;42542;48.360;10.958;2024-03-02T08:14:55;95100.31;;;5.94;100.00
56668;BME280;42542;48.360;10.958;2024-03-02T08:17:57;95097.84;;;6.00;100.00
56668;BME280;42542;48.360;10.958;2024-03-02T08:20:59;95101.38;;;6.09;100.00
56668;BME280;42542;48.360;10.958;2024-03-02T08:24:02;95102.53;;;6.14;100.00
56668;BME280;42542;48.360;10.958;2024-03-02T08:27:03;95108.03;;;6.21;100.00
56668;BME280;42542;48.360;10.958;2024-03-02T08:30:06;95104.72;;;6.27;100.00
56668;BME280;42542;48.360;10.958;2024-03-02T08:33:09;95101.44;;;6.33;100.00
56668;BME280;42542;48.360;10.958;2024-03-02T08:36:11;95105.09;;;6.40;100.00
56668;BME280;42542;48.360;10.958;2024-03-02T08:39:13;95104.44;;;6.46;100.00
56668;BME280;42542;48.360;10.958;2024-03-02T08:42:18;95114.06;;;6.55;100.00
56668;BME280;42542;48.360;10.958;2024-03-02T08:45:20;95114.88;;;6.64;100.00
56668;BME280;42542;48.360;10.958;2024-03-02T08:48:22;95105.94;;;6.73;100.00
56668;BME280;42542;48.360;10.958;2024-03-02T08:51:24;95104.28;;;6.80;100.00
56668;BME280;42542;48.360;10.958;2024-03-02T08:54:26;95107.78;;;6.89;100.00
56668;BME280;42542;48.360;10.958;2024-03-02T08:57:30;95097.16;;;6.97;100.00
56668;BME280;42542;48.360;10.958;2024-03-02T09:00:32;95108.59;;;7.05;100.00
56668;BME280;42542;48.360;10.958;2024-03-02T09:03:34;95099.78;;;7.13;100.00
56668;BME280;42542;48.360;10.958;2024-03-02T09:06:36;95105.06;;;7.21;100.00
56668;BME280;42542;48.360;10.958;2024-03-02T09:09:39;95095.41;;;7.28;100.00
56668;BME280;42542;48.360;10.958;2024-03-02T09:12:41;95101.41;;;7.38;100.00
56668;BME280;42542;48.360;10.958;2024-03-02T09:15:43;95106.03;;;7.44;100.00
56668;BME280;42542;48.360;10.958;2024-03-02T09:18:46;95103.50;;;7.51;100.00
56668;BME280;42542;48.360;10.958;2024-03-02T09:21:48;95110.66;;;7.59;100.00
56668;BME280;42542;48.360;10.958;2024-03-02T09:24:51;95107.28;;;7.65;100.00
56668;BME280;42542;48.360;10.958;2024-03-02T09:27:53;95102.78;;;7.73;100.00
56668;BME280;42542;48.360;10.958;2024-03-02T09:30:56;95106.41;;;7.80;100.00
56668;BME280;42542;48.360;10.958;2024-03-02T09:34:01;95106.38;;;7.89;100.00
56668;BME280;42542;48.360;10.958;2024-03-02T09:37:04;95092.56;;;7.93;100.00
56668;BME280;42542;48.360;10.958;2024-03-02T09:40:06;95093.34;;;8.02;100.00
56668;BME280;42542;48.360;10.958;2024-03-02T09:43:09;95091.47;;;8.10;100.00
56668;BME280;42542;48.360;10.958;2024-03-02T09:46:11;95086.28;;;8.17;100.00
56668;BME280;42542;48.360;10.958;2024-03-02T09:49:13;95093.41;;;8.24;100.00
56668;BME280;42542;48.360;10.958;2024-03-02T09:52:16;95083.25;;;8.28;100.00
56668;BME280;42542;48.360;10.958;2024-03-02T09:55:18;95094.22;;;8.33;100.00
56668;BME280;42542;48.360;10.958;2024-03-02T09:58:20;95086.53;;;8.38;100.00
56668;BME280;42542;48.360;10.958;2024-03-02T10:01:22;95086.47;;;8.46;100.00
56668;BME280;42542;48.360;10.958;2024-03-02T10:04:28;95086.78;;;8.51;100.00
56668;BME280;42542;48.360;10.958;2024-03-02T10:07:30;95077.91;;;8.59;100.00
56668;BME280;42542;48.360;10.958;2024-03-02T10:10:40;95086.84;;;8.66;100.00
56668;BME280;42542;48.360;10.958;2024-03-02T10:13:42;95087.78;;;8.73;100.00
56668;BME280;42542;48.360;10.958;2024-03-02T10:16:44;95087.72;;;8.81;100.00
56668;BME280;42542;48.360;10.958;2024-03-02T10:19:46;95084.34;;;8.87;100.00
56668;BME280;42542;48.360;10.958;2024-03-02T10:22:49;95088.16;;;8.93;100.00
56668;BME280;42542;48.360;10.958;2024-03-02T10:25:51;95077.75;;;8.98;100.00
56668;BME280;42542;48.360;10.958;2024-03-02T10:28:59;95077.88;;;9.05;100.00
56668;BME280;42542;48.360;10.958;2024-03-02T10:32:02;95074.03;;;9.07;100.00
56668;BME280;42542;48.360;10.958;2024-03-02T10:35:05;95062.16;;;9.10;100.00
56668;BME280;42542;48.360;10.958;2024-03-02T10:38:11;95066.22;;;9.20;100.00
56668;BME280;42542;48.360;10.958;2024-03-02T10:41:19;95062.00;;;9.26;100.00
56668;BME280;42542;48.360;10.958;2024-03-02T10:44:25;95061.28;;;9.32;100.00
56668;BME280;42542;48.360;10.958;2024-03-02T10:47:30;95060.72;;;9.36;100.00
56668;BME280;42542;48.360;10.958;2024-03-02T10:50:34;95052.19;;;9.41;100.00
56668;BME280;42542;48.360;10.958;2024-03-02T10:53:35;95052.09;;;9.49;100.00
56668;BME280;42542;48.360;10.958;2024-03-02T10:56:41;95047.84;;;9.55;100.00
56668;BME280;42542;48.360;10.958;2024-03-02T10:59:53;95044.28;;;9.62;100.00
56668;BME280;42542;48.360;10.958;2024-03-02T11:03:05;95044.72;;;9.66;100.00
56668;BME280;42542;48.360;10.958;2024-03-02T11:06:08;95037.00;;;9.71;100.00
56668;BME280;42542;48.360;10.958;2024-03-02T11:09:12;95039.94;;;9.76;100.00
56668;BME280;42542;48.360;10.958;2024-03-02T11:12:19;95025.41;;;9.78;100.00
56668;BME280;42542;48.360;10.958;2024-03-02T11:15:24;95021.34;;;9.83;100.00
56668;BME280;42542;48.360;10.958;2024-03-02T11:18:27;95013.81;;;9.86;99.81
56668;BME280;42542;48.360;10.958;2024-03-02T11:21:33;95017.91;;;9.89;99.56
56668;BME280;42542;48.360;10.958;2024-03-02T11:24:36;95006.22;;;9.90;98.37
56668;BME280;42542;48.360;10.958;2024-03-02T11:30:50;95005.47;;;9.96;99.16
56668;BME280;42542;48.360;10.958;2024-03-02T11:33:52;95001.97;;;9.95;98.40
56668;BME280;42542;48.360;10.958;2024-03-02T11:36:54;95003.19;;;9.93;98.13
56668;BME280;42542;48.360;10.958;2024-03-02T11:39:57;94997.88;;;9.93;98.10
56668;BME280;42542;48.360;10.958;2024-03-02T11:43:02;94986.34;;;9.92;98.01
56668;BME280;42542;48.360;10.958;2024-03-02T11:46:05;94985.06;;;9.88;97.51
56668;BME280;42542;48.360;10.958;2024-03-02T11:49:14;94986.59;;;9.97;97.58
56668;BME280;42542;48.360;10.958;2024-03-02T11:52:17;94981.09;;;9.99;97.33
56668;BME280;42542;48.360;10.958;2024-03-02T11:55:20;94962.59;;;9.97;98.05
56668;BME280;42542;48.360;10.958;2024-03-02T11:58:22;94966.16;;;10.04;98.04
56668;BME280;42542;48.360;10.958;2024-03-02T12:01:28;94959.44;;;10.08;98.09
56668;BME280;42542;48.360;10.958;2024-03-02T12:04:31;94960.50;;;10.14;98.03
56668;BME280;42542;48.360;10.958;2024-03-02T12:07:32;94967.59;;;10.22;97.84
56668;BME280;42542;48.360;10.958;2024-03-02T12:10:36;94949.34;;;10.25;96.19
56668;BME280;42542;48.360;10.958;2024-03-02T12:13:38;94946.91;;;10.30;96.12
56668;BME280;42542;48.360;10.958;2024-03-02T12:16:46;94928.03;;;10.32;96.71
56668;BME280;42542;48.360;10.958;2024-03-02T12:19:49;94930.97;;;10.37;96.51
56668;BME280;42542;48.360;10.958;2024-03-02T12:22:55;94919.53;;;10.43;95.42
56668;BME280;42542;48.360;10.958;2024-03-02T12:25:57;94924.91;;;10.49;94.92
56668;BME280;42542;48.360;10.958;2024-03-02T12:29:00;94917.97;;;10.55;95.29
56668;BME280;42542;48.360;10.958;2024-03-02T12:32:02;94922.28;;;10.56;94.63
56668;BME280;42542;48.360;10.958;2024-03-02T12:35:04;94906.09;;;10.57;93.97
56668;BME280;42542;48.360;10.958;2024-03-02T12:38:06;94901.56;;;10.58;94.30
56668;BME280;42542;48.360;10.958;2024-03-02T12:41:09;94898.91;;;10.58;94.98
56668;BME280;42542;48.360;10.958;2024-03-02T12:44:10;94887.78;;;10.61;93.34
56668;BME280;42542;48.360;10.958;2024-03-02T12:47:12;94888.84;;;10.67;93.72
56668;BME280;42542;48.360;10.958;2024-03-02T12:50:15;94883.13;;;10.70;92.56
56668;BME280;42542;48.360;10.958;2024-03-02T12:53:17;94881.94;;;10.72;92.13
56668;BME280;42542;48.360;10.958;2024-03-02T12:56:19;94883.19;;;10.76;90.65
56668;BME280;42542;48.360;10.958;2024-03-02T12:59:24;94883.81;;;10.78;89.49
56668;BME280;42542;48.360;10.958;2024-03-02T13:02:28;94878.09;;;10.88;88.91
56668;BME280;42542;48.360;10.958;2024-03-02T13:05:31;94875.44;;;10.88;86.67
56668;BME280;42542;48.360;10.958;2024-03-02T13:08:34;94866.19;;;10.90;85.34
56668;BME280;42542;48.360;10.958;2024-03-02T13:11:37;94856.78;;;10.94;87.46
56668;BME280;42542;48.360;10.958;2024-03-02T13:14:40;94860.06;;;10.96;87.53
56668;BME280;42542;48.360;10.958;2024-03-02T13:17:42;94855.72;;;10.95;88.41
56668;BME280;42542;48.360;10.958;2024-03-02T13:20:44;94858.22;;;10.97;88.38
56668;BME280;42542;48.360;10.958;2024-03-02T13:23:45;94858.84;;;10.99;88.42
56668;BME280;42542;48.360;10.958;2024-03-02T13:26:48;94846.13;;;11.01;88.99
56668;BME280;42542;48.360;10.958;2024-03-02T13:29:49;94848.38;;;11.04;89.49
56668;BME280;42542;48.360;10.958;2024-03-02T13:32:52;94849.66;;;11.08;89.02
56668;BME280;42542;48.360;10.958;2024-03-02T13:35:55;94851.72;;;11.13;89.18
56668;BME280;42542;48.360;10.958;2024-03-02T13:38:56;94843.31;;;11.16;89.59
56668;BME280;42542;48.360;10.958;2024-03-02T13:42:00;94833.84;;;11.20;89.31
56668;BME280;42542;48.360;10.958;2024-03-02T13:45:09;94837.34;;;11.20;89.12
56668;BME280;42542;48.360;10.958;2024-03-02T13:48:11;94826.66;;;11.20;89.09
56668;BME280;42542;48.360;10.958;2024-03-02T13:51:13;94822.97;;;11.21;89.10
56668;BME280;42542;48.360;10.958;2024-03-02T13:54:15;94829.75;;;11.24;88.27
56668;BME280;42542;48.360;10.958;2024-03-02T13:57:16;94815.97;;;11.27;86.64
56668;BME280;42542;48.360;10.958;2024-03-02T14:00:25;94820.13;;;11.29;87.54
56668;BME280;42542;48.360;10.958;2024-03-02T14:03:27;94821.34;;;11.33;87.67
56668;BME280;42542;48.360;10.958;2024-03-02T14:06:31;94817.22;;;11.31;86.80
56668;BME280;42542;48.360;10.958;2024-03-02T14:09:33;94816.41;;;11.30;86.37
56668;BME280;42542;48.360;10.958;2024-03-02T14:12:36;94816.63;;;11.29;86.20
56668;BME280;42542;48.360;10.958;2024-03-02T14:15:38;94814.97;;;11.28;85.68
56668;BME280;42542;48.360;10.958;2024-03-02T14:18:41;94807.75;;;11.28;84.88
56668;BME280;42542;48.360;10.958;2024-03-02T14:21:44;94814.75;;;11.29;84.60
56668;BME280;42542;48.360;10.958;2024-03-02T14:24:46;94816.00;;;11.33;85.22
56668;BME280;42542;48.360;10.958;2024-03-02T14:27:50;94815.19;;;11.33;84.61
56668;BME280;42542;48.360;10.958;2024-03-02T14:31:12;94810.84;;;11.32;84.51
56668;BME280;42542;48.360;10.958;2024-03-02T14:34:15;94808.41;;;11.30;83.97
56668;BME280;42542;48.360;10.958;2024-03-02T14:37:17;94808.41;;;11.30;83.52
56668;BME280;42542;48.360;10.958;2024-03-02T14:40:19;94807.97;;;11.27;82.89
56668;BME280;42542;48.360;10.958;2024-03-02T14:43:22;94801.78;;;11.26;83.13
56668;BME280;42542;48.360;10.958;2024-03-02T14:46:24;94795.19;;;11.22;83.35
56668;BME280;42542;48.360;10.958;2024-03-02T14:49:26;94798.28;;;11.26;83.57
56668;BME280;42542;48.360;10.958;2024-03-02T14:52:29;94790.69;;;11.29;83.89
56668;BME280;42542;48.360;10.958;2024-03-02T14:55:31;94784.72;;;11.34;82.97
56668;BME280;42542;48.360;10.958;2024-03-02T14:58:33;94793.78;;;11.40;83.02
56668;BME280;42542;48.360;10.958;2024-03-02T15:01:36;94797.13;;;11.55;82.71
56668;BME280;42542;48.360;10.958;2024-03-02T15:04:39;94794.72;;;11.73;81.87
56668;BME280;42542;48.360;10.958;2024-03-02T15:07:41;94793.31;;;11.97;81.46
56668;BME280;42542;48.360;10.958;2024-03-02T15:10:43;94786.31;;;12.22;80.24
56668;BME280;42542;48.360;10.958;2024-03-02T15:13:46;94793.94;;;12.45;79.74
56668;BME280;42542;48.360;10.958;2024-03-02T15:16:49;94780.88;;;12.68;79.10
56668;BME280;42542;48.360;10.958;2024-03-02T15:19:51;94781.03;;;12.93;78.27
56668;BME280;42542;48.360;10.958;2024-03-02T15:22:53;94772.94;;;13.06;76.23
56668;BME280;42542;48.360;10.958;2024-03-02T15:25:55;94774.41;;;13.02;75.09
56668;BME280;42542;48.360;10.958;2024-03-02T15:28:58;94773.19;;;12.91;74.61
56668;BME280;42542;48.360;10.958;2024-03-02T15:32:00;94779.22;;;12.80;75.17
56668;BME280;42542;48.360;10.958;2024-03-02T15:35:03;94771.63;;;12.64;75.52
56668;BME280;42542;48.360;10.958;2024-03-02T15:38:05;94774.34;;;12.44;75.26
56668;BME280;42542;48.360;10.958;2024-03-02T15:41:22;94765.72;;;12.23;76.24
56668;BME280;42542;48.360;10.958;2024-03-02T15:44:24;94762.63;;;12.06;77.35
56668;BME280;42542;48.360;10.958;2024-03-02T15:47:27;94765.50;;;11.91;77.54
56668;BME280;42542;48.360;10.958;2024-03-02T15:50:29;94759.31;;;11.78;77.16
56668;BME280;42542;48.360;10.958;2024-03-02T15:53:31;94758.25;;;11.65;77.94
56668;BME280;42542;48.360;10.958;2024-03-02T15:56:33;94758.22;;;11.52;77.82
56668;BME280;42542;48.360;10.958;2024-03-02T15:59:35;94757.59;;;11.37;78.33